sensor_id;sensor_type;location;lat;lon;timestamp;P1;durP1;ratioP1;P2;durP2;ratioP2
13672;SDS011;6909;52.202;9.876;2022-11-15T00:00:52;3.77;;;2.20;;
13672;SDS011;6909;52.202;9.876;2022-11-15T00:03:20;3.50;;;2.50;;
13672;SDS011;6909;52.202;9.876;2022-11-15T00:05:47;4.60;;;2.23;;
13672;SDS011;6909;52.202;9.876;2022-11-15T00:08:16;4.40;;;2.50;;
13672;SDS011;6909;52.202;9.876;2022-11-15T00:10:43;4.17;;;2.67;;
13672;SDS011;6909;52.202;9.876;2022-11-15T00:13:19;4.57;;;2.70;;
13672;SDS011;6909;52.202;9.876;2022-11-15T00:15:46;5.03;;;3.10;;
13672;SDS011;6909;52.202;9.876;2022-11-15T00:18:13;4.53;;;2.70;;
13672;SDS011;6909;52.202;9.876;2022-11-15T00:20:40;5.10;;;2.87;;
13672;SDS011;6909;52.202;9.876;2022-11-15T00:23:07;3.07;;;2.37;;
13672;SDS011;6909;52.202;9.876;2022-11-15T00:25:36;5.23;;;2.50;;
13672;SDS011;6909;52.202;9.876;2022-11-15T00:28:03;4.13;;;2.77;;
13672;SDS011;6909;52.202;9.876;2022-11-15T00:30:30;3.40;;;2.53;;
13672;SDS011;6909;52.202;9.876;2022-11-15T00:32:56;5.60;;;2.03;;
13672;SDS011;6909;52.202;9.876;2022-11-15T00:35:27;3.83;;;2.23;;
13672;SDS011;6909;52.202;9.876;2022-11-15T00:37:54;2.67;;;2.47;;
13672;SDS011;6909;52.202;9.876;2022-11-15T00:40:21;4.80;;;2.30;;
13672;SDS011;6909;52.202;9.876;2022-11-15T00:42:49;5.63;;;2.33;;
13672;SDS011;6909;52.202;9.876;2022-11-15T00:45:16;3.60;;;2.53;;
13672;SDS011;6909;52.202;9.876;2022-11-15T00:47:43;2.43;;;2.20;;
13672;SDS011;6909;52.202;9.876;2022-11-15T00:50:11;3.87;;;2.70;;
13672;SDS011;6909;52.202;9.876;2022-11-15T00:52:38;4.10;;;2.37;;
13672;SDS011;6909;52.202;9.876;2022-11-15T00:55:04;3.03;;;2.23;;
13672;SDS011;6909;52.202;9.876;2022-11-15T00:57:31;2.67;;;2.00;;
13672;SDS011;6909;52.202;9.876;2022-11-15T00:59:59;4.63;;;2.63;;
13672;SDS011;6909;52.202;9.876;2022-11-15T01:02:26;3.87;;;3.00;;
13672;SDS011;6909;52.202;9.876;2022-11-15T01:04:53;2.97;;;2.60;;
13672;SDS011;6909;52.202;9.876;2022-11-15T01:07:20;3.93;;;2.30;;
13672;SDS011;6909;52.202;9.876;2022-11-15T01:09:46;4.37;;;2.43;;
13672;SDS011;6909;52.202;9.876;2022-11-15T01:12:13;10.17;;;2.50;;
13672;SDS011;6909;52.202;9.876;2022-11-15T01:14:40;2.73;;;2.40;;
13672;SDS011;6909;52.202;9.876;2022-11-15T01:17:08;4.13;;;2.67;;
13672;SDS011;6909;52.202;9.876;2022-11-15T01:19:34;4.23;;;2.60;;
13672;SDS011;6909;52.202;9.876;2022-11-15T01:22:01;3.50;;;2.27;;
13672;SDS011;6909;52.202;9.876;2022-11-15T01:24:28;4.53;;;2.50;;
13672;SDS011;6909;52.202;9.876;2022-11-15T01:26:55;4.10;;;2.63;;
13672;SDS011;6909;52.202;9.876;2022-11-15T01:29:21;3.97;;;2.20;;
13672;SDS011;6909;52.202;9.876;2022-11-15T01:31:52;3.87;;;2.40;;
13672;SDS011;6909;52.202;9.876;2022-11-15T01:34:20;3.30;;;2.23;;
13672;SDS011;6909;52.202;9.876;2022-11-15T01:36:47;3.17;;;2.87;;
13672;SDS011;6909;52.202;9.876;2022-11-15T01:39:14;2.90;;;2.23;;
13672;SDS011;6909;52.202;9.876;2022-11-15T01:41:41;5.13;;;2.50;;
13672;SDS011;6909;52.202;9.876;2022-11-15T01:47:12;4.63;;;3.07;;
13672;SDS011;6909;52.202;9.876;2022-11-15T01:49:44;3.23;;;2.57;;
13672;SDS011;6909;52.202;9.876;2022-11-15T01:52:18;2.87;;;2.57;;
13672;SDS011;6909;52.202;9.876;2022-11-15T01:54:48;3.00;;;2.23;;
13672;SDS011;6909;52.202;9.876;2022-11-15T01:57:18;3.30;;;2.60;;
13672;SDS011;6909;52.202;9.876;2022-11-15T01:59:45;3.93;;;2.33;;
13672;SDS011;6909;52.202;9.876;2022-11-15T02:02:13;4.80;;;2.73;;
13672;SDS011;6909;52.202;9.876;2022-11-15T02:04:40;4.00;;;2.53;;
13672;SDS011;6909;52.202;9.876;2022-11-15T02:07:11;3.77;;;2.60;;
13672;SDS011;6909;52.202;9.876;2022-11-15T02:09:40;4.30;;;2.90;;
13672;SDS011;6909;52.202;9.876;2022-11-15T02:12:08;4.23;;;3.07;;
13672;SDS011;6909;52.202;9.876;2022-11-15T02:14:37;4.73;;;3.00;;
13672;SDS011;6909;52.202;9.876;2022-11-15T02:17:08;3.97;;;3.03;;
13672;SDS011;6909;52.202;9.876;2022-11-15T02:19:53;3.43;;;2.43;;
13672;SDS011;6909;52.202;9.876;2022-11-15T02:22:42;4.37;;;2.93;;
13672;SDS011;6909;52.202;9.876;2022-11-15T02:25:31;2.63;;;2.27;;
13672;SDS011;6909;52.202;9.876;2022-11-15T02:31:02;3.17;;;2.73;;
13672;SDS011;6909;52.202;9.876;2022-11-15T02:33:35;4.80;;;2.93;;
13672;SDS011;6909;52.202;9.876;2022-11-15T02:36:09;2.70;;;2.50;;
13672;SDS011;6909;52.202;9.876;2022-11-15T02:38:40;3.20;;;2.40;;
13672;SDS011;6909;52.202;9.876;2022-11-15T02:41:14;3.63;;;2.30;;
13672;SDS011;6909;52.202;9.876;2022-11-15T02:43:45;2.93;;;2.50;;
13672;SDS011;6909;52.202;9.876;2022-11-15T02:46:27;3.17;;;2.20;;
13672;SDS011;6909;52.202;9.876;2022-11-15T02:49:16;2.77;;;2.27;;
13672;SDS011;6909;52.202;9.876;2022-11-15T02:51:44;3.70;;;2.17;;
13672;SDS011;6909;52.202;9.876;2022-11-15T02:54:14;3.30;;;2.47;;
13672;SDS011;6909;52.202;9.876;2022-11-15T02:56:43;5.10;;;2.97;;
13672;SDS011;6909;52.202;9.876;2022-11-15T03:02:11;6.53;;;2.30;;
13672;SDS011;6909;52.202;9.876;2022-11-15T03:04:45;3.33;;;2.07;;
13672;SDS011;6909;52.202;9.876;2022-11-15T03:07:20;3.40;;;2.07;;
13672;SDS011;6909;52.202;9.876;2022-11-15T03:09:54;2.83;;;1.83;;
13672;SDS011;6909;52.202;9.876;2022-11-15T03:12:27;7.43;;;2.43;;
13672;SDS011;6909;52.202;9.876;2022-11-15T03:15:00;3.60;;;2.20;;
13672;SDS011;6909;52.202;9.876;2022-11-15T03:17:33;4.70;;;2.27;;
13672;SDS011;6909;52.202;9.876;2022-11-15T03:20:04;5.20;;;2.27;;
13672;SDS011;6909;52.202;9.876;2022-11-15T03:22:34;2.23;;;2.03;;
13672;SDS011;6909;52.202;9.876;2022-11-15T03:25:04;1.40;;;1.30;;
13672;SDS011;6909;52.202;9.876;2022-11-15T03:27:35;4.67;;;1.97;;
13672;SDS011;6909;52.202;9.876;2022-11-15T03:30:06;3.90;;;1.80;;
13672;SDS011;6909;52.202;9.876;2022-11-15T03:32:40;3.30;;;1.90;;
13672;SDS011;6909;52.202;9.876;2022-11-15T03:35:12;3.00;;;2.20;;
13672;SDS011;6909;52.202;9.876;2022-11-15T03:37:44;4.40;;;2.47;;
13672;SDS011;6909;52.202;9.876;2022-11-15T03:40:15;4.33;;;2.10;;
13672;SDS011;6909;52.202;9.876;2022-11-15T03:42:44;2.73;;;1.90;;
13672;SDS011;6909;52.202;9.876;2022-11-15T03:45:15;4.73;;;2.40;;
13672;SDS011;6909;52.202;9.876;2022-11-15T03:47:48;2.60;;;2.20;;
13672;SDS011;6909;52.202;9.876;2022-11-15T03:50:20;2.33;;;2.00;;
13672;SDS011;6909;52.202;9.876;2022-11-15T03:52:48;3.87;;;2.57;;
13672;SDS011;6909;52.202;9.876;2022-11-15T03:55:17;3.43;;;1.80;;
13672;SDS011;6909;52.202;9.876;2022-11-15T03:57:45;2.27;;;1.73;;
13672;SDS011;6909;52.202;9.876;2022-11-15T04:00:14;2.90;;;1.80;;
13672;SDS011;6909;52.202;9.876;2022-11-15T04:02:41;5.53;;;1.80;;
13672;SDS011;6909;52.202;9.876;2022-11-15T04:05:09;2.97;;;1.73;;
13672;SDS011;6909;52.202;9.876;2022-11-15T04:07:36;5.13;;;1.73;;
13672;SDS011;6909;52.202;9.876;2022-11-15T04:10:03;2.77;;;1.83;;
13672;SDS011;6909;52.202;9.876;2022-11-15T04:12:31;2.00;;;1.53;;
13672;SDS011;6909;52.202;9.876;2022-11-15T04:15:00;2.17;;;1.60;;
13672;SDS011;6909;52.202;9.876;2022-11-15T04:17:34;2.20;;;1.80;;
13672;SDS011;6909;52.202;9.876;2022-11-15T04:20:02;2.33;;;1.47;;
13672;SDS011;6909;52.202;9.876;2022-11-15T04:22:49;4.57;;;1.97;;
13672;SDS011;6909;52.202;9.876;2022-11-15T04:25:36;2.10;;;1.60;;
13672;SDS011;6909;52.202;9.876;2022-11-15T04:28:03;4.40;;;1.93;;
13672;SDS011;6909;52.202;9.876;2022-11-15T04:30:29;1.77;;;1.30;;
13672;SDS011;6909;52.202;9.876;2022-11-15T04:32:56;2.60;;;1.67;;
13672;SDS011;6909;52.202;9.876;2022-11-15T04:35:23;1.90;;;1.60;;
13672;SDS011;6909;52.202;9.876;2022-11-15T04:37:51;2.17;;;1.47;;
13672;SDS011;6909;52.202;9.876;2022-11-15T04:40:18;2.50;;;1.57;;
13672;SDS011;6909;52.202;9.876;2022-11-15T04:42:45;1.90;;;1.23;;
13672;SDS011;6909;52.202;9.876;2022-11-15T04:45:11;2.20;;;1.50;;
13672;SDS011;6909;52.202;9.876;2022-11-15T04:47:38;2.80;;;1.70;;
13672;SDS011;6909;52.202;9.876;2022-11-15T04:50:05;1.77;;;1.23;;
13672;SDS011;6909;52.202;9.876;2022-11-15T04:52:32;2.40;;;1.73;;
13672;SDS011;6909;52.202;9.876;2022-11-15T04:55:00;2.10;;;1.87;;
13672;SDS011;6909;52.202;9.876;2022-11-15T04:57:27;3.37;;;1.57;;
13672;SDS011;6909;52.202;9.876;2022-11-15T04:59:54;1.50;;;1.40;;
13672;SDS011;6909;52.202;9.876;2022-11-15T05:02:20;1.93;;;1.53;;
13672;SDS011;6909;52.202;9.876;2022-11-15T05:04:47;2.30;;;1.73;;
13672;SDS011;6909;52.202;9.876;2022-11-15T05:07:14;1.90;;;1.40;;
13672;SDS011;6909;52.202;9.876;2022-11-15T05:09:40;1.57;;;1.37;;
13672;SDS011;6909;52.202;9.876;2022-11-15T05:12:08;2.90;;;1.53;;
13672;SDS011;6909;52.202;9.876;2022-11-15T05:14:35;1.70;;;1.60;;
13672;SDS011;6909;52.202;9.876;2022-11-15T05:17:02;2.23;;;1.53;;
13672;SDS011;6909;52.202;9.876;2022-11-15T05:19:31;3.47;;;1.90;;
13672;SDS011;6909;52.202;9.876;2022-11-15T05:21:58;3.57;;;1.80;;
13672;SDS011;6909;52.202;9.876;2022-11-15T05:24:25;1.67;;;1.50;;
13672;SDS011;6909;52.202;9.876;2022-11-15T05:26:51;1.83;;;1.33;;
13672;SDS011;6909;52.202;9.876;2022-11-15T05:29:19;3.43;;;2.17;;
13672;SDS011;6909;52.202;9.876;2022-11-15T05:31:46;0.97;;;0.90;;
13672;SDS011;6909;52.202;9.876;2022-11-15T05:34:13;1.67;;;1.20;;
13672;SDS011;6909;52.202;9.876;2022-11-15T05:36:40;1.97;;;1.53;;
13672;SDS011;6909;52.202;9.876;2022-11-15T05:39:09;2.70;;;1.37;;
13672;SDS011;6909;52.202;9.876;2022-11-15T05:41:37;2.70;;;1.73;;
13672;SDS011;6909;52.202;9.876;2022-11-15T05:44:07;1.87;;;1.33;;
13672;SDS011;6909;52.202;9.876;2022-11-15T05:46:37;1.87;;;1.67;;
13672;SDS011;6909;52.202;9.876;2022-11-15T05:49:06;4.87;;;1.70;;
13672;SDS011;6909;52.202;9.876;2022-11-15T05:51:36;1.73;;;1.40;;
13672;SDS011;6909;52.202;9.876;2022-11-15T05:54:03;2.43;;;1.23;;
13672;SDS011;6909;52.202;9.876;2022-11-15T05:56:30;1.73;;;1.47;;
13672;SDS011;6909;52.202;9.876;2022-11-15T05:58:57;2.60;;;1.87;;
13672;SDS011;6909;52.202;9.876;2022-11-15T06:01:25;2.47;;;1.70;;
13672;SDS011;6909;52.202;9.876;2022-11-15T06:03:54;2.17;;;1.73;;
13672;SDS011;6909;52.202;9.876;2022-11-15T06:06:20;1.83;;;1.63;;
13672;SDS011;6909;52.202;9.876;2022-11-15T06:08:47;2.47;;;1.60;;
13672;SDS011;6909;52.202;9.876;2022-11-15T06:11:14;2.07;;;1.87;;
13672;SDS011;6909;52.202;9.876;2022-11-15T06:13:41;2.30;;;1.60;;
13672;SDS011;6909;52.202;9.876;2022-11-15T06:16:07;2.30;;;1.90;;
13672;SDS011;6909;52.202;9.876;2022-11-15T06:18:34;2.17;;;1.63;;
13672;SDS011;6909;52.202;9.876;2022-11-15T06:21:03;3.60;;;2.03;;
13672;SDS011;6909;52.202;9.876;2022-11-15T06:23:31;2.70;;;2.13;;
13672;SDS011;6909;52.202;9.876;2022-11-15T06:25:59;3.47;;;1.67;;
13672;SDS011;6909;52.202;9.876;2022-11-15T06:28:28;3.03;;;1.47;;
13672;SDS011;6909;52.202;9.876;2022-11-15T06:30:55;1.80;;;1.20;;
13672;SDS011;6909;52.202;9.876;2022-11-15T06:33:22;1.50;;;1.33;;
13672;SDS011;6909;52.202;9.876;2022-11-15T06:35:48;2.10;;;1.60;;
13672;SDS011;6909;52.202;9.876;2022-11-15T06:38:16;1.93;;;1.50;;
13672;SDS011;6909;52.202;9.876;2022-11-15T06:40:43;1.83;;;1.20;;
13672;SDS011;6909;52.202;9.876;2022-11-15T06:43:10;2.17;;;1.50;;
13672;SDS011;6909;52.202;9.876;2022-11-15T06:45:37;3.43;;;2.33;;
13672;SDS011;6909;52.202;9.876;2022-11-15T06:48:04;2.17;;;1.60;;
13672;SDS011;6909;52.202;9.876;2022-11-15T06:50:31;1.80;;;1.37;;
13672;SDS011;6909;52.202;9.876;2022-11-15T06:53:00;1.47;;;1.37;;
13672;SDS011;6909;52.202;9.876;2022-11-15T06:55:29;4.73;;;1.97;;
13672;SDS011;6909;52.202;9.876;2022-11-15T06:57:56;2.00;;;1.80;;
13672;SDS011;6909;52.202;9.876;2022-11-15T07:00:22;1.83;;;1.60;;
13672;SDS011;6909;52.202;9.876;2022-11-15T07:02:49;2.73;;;1.73;;
13672;SDS011;6909;52.202;9.876;2022-11-15T07:05:16;4.00;;;1.87;;
13672;SDS011;6909;52.202;9.876;2022-11-15T07:07:43;2.63;;;1.60;;
13672;SDS011;6909;52.202;9.876;2022-11-15T07:10:16;3.27;;;2.10;;
13672;SDS011;6909;52.202;9.876;2022-11-15T07:12:47;2.70;;;2.03;;
13672;SDS011;6909;52.202;9.876;2022-11-15T07:15:14;1.83;;;1.53;;
13672;SDS011;6909;52.202;9.876;2022-11-15T07:17:41;3.80;;;1.97;;
13672;SDS011;6909;52.202;9.876;2022-11-15T07:20:08;1.37;;;1.27;;
13672;SDS011;6909;52.202;9.876;2022-11-15T07:22:36;2.60;;;2.40;;
13672;SDS011;6909;52.202;9.876;2022-11-15T07:25:03;2.00;;;1.80;;
13672;SDS011;6909;52.202;9.876;2022-11-15T07:27:30;2.63;;;1.70;;
13672;SDS011;6909;52.202;9.876;2022-11-15T07:29:58;3.60;;;2.30;;
13672;SDS011;6909;52.202;9.876;2022-11-15T07:32:25;2.20;;;2.00;;
13672;SDS011;6909;52.202;9.876;2022-11-15T07:34:51;1.77;;;1.47;;
13672;SDS011;6909;52.202;9.876;2022-11-15T07:37:18;1.93;;;1.73;;
13672;SDS011;6909;52.202;9.876;2022-11-15T07:39:45;1.70;;;1.60;;
13672;SDS011;6909;52.202;9.876;2022-11-15T07:42:11;1.53;;;1.43;;
13672;SDS011;6909;52.202;9.876;2022-11-15T07:44:56;2.03;;;1.83;;
13672;SDS011;6909;52.202;9.876;2022-11-15T07:47:24;1.40;;;1.30;;
13672;SDS011;6909;52.202;9.876;2022-11-15T07:49:50;2.43;;;1.60;;
13672;SDS011;6909;52.202;9.876;2022-11-15T07:52:17;3.00;;;1.60;;
13672;SDS011;6909;52.202;9.876;2022-11-15T07:54:44;2.13;;;1.60;;
13672;SDS011;6909;52.202;9.876;2022-11-15T07:57:10;1.60;;;1.50;;
13672;SDS011;6909;52.202;9.876;2022-11-15T07:59:37;2.87;;;1.70;;
13672;SDS011;6909;52.202;9.876;2022-11-15T08:02:05;2.47;;;1.60;;
13672;SDS011;6909;52.202;9.876;2022-11-15T08:04:32;2.87;;;1.77;;
13672;SDS011;6909;52.202;9.876;2022-11-15T08:06:58;2.50;;;1.30;;
13672;SDS011;6909;52.202;9.876;2022-11-15T08:09:25;2.03;;;1.20;;
13672;SDS011;6909;52.202;9.876;2022-11-15T08:11:52;1.70;;;1.40;;
13672;SDS011;6909;52.202;9.876;2022-11-15T08:14:18;2.20;;;1.50;;
13672;SDS011;6909;52.202;9.876;2022-11-15T08:16:47;2.73;;;1.27;;
13672;SDS011;6909;52.202;9.876;2022-11-15T08:19:15;1.70;;;1.53;;
13672;SDS011;6909;52.202;9.876;2022-11-15T08:21:41;1.53;;;1.27;;
13672;SDS011;6909;52.202;9.876;2022-11-15T08:24:09;2.43;;;1.27;;
13672;SDS011;6909;52.202;9.876;2022-11-15T08:26:36;3.07;;;1.60;;
13672;SDS011;6909;52.202;9.876;2022-11-15T08:29:03;1.40;;;1.10;;
13672;SDS011;6909;52.202;9.876;2022-11-15T08:31:29;1.30;;;1.20;;
13672;SDS011;6909;52.202;9.876;2022-11-15T08:33:56;1.77;;;1.20;;
13672;SDS011;6909;52.202;9.876;2022-11-15T08:36:24;1.50;;;1.17;;
13672;SDS011;6909;52.202;9.876;2022-11-15T08:38:51;2.33;;;1.50;;
13672;SDS011;6909;52.202;9.876;2022-11-15T08:41:19;1.40;;;1.30;;
13672;SDS011;6909;52.202;9.876;2022-11-15T08:43:50;1.33;;;1.20;;
13672;SDS011;6909;52.202;9.876;2022-11-15T08:46:17;3.13;;;1.50;;
13672;SDS011;6909;52.202;9.876;2022-11-15T08:48:44;2.33;;;1.53;;
13672;SDS011;6909;52.202;9.876;2022-11-15T08:51:10;1.47;;;1.20;;
13672;SDS011;6909;52.202;9.876;2022-11-15T08:53:39;1.03;;;0.80;;
13672;SDS011;6909;52.202;9.876;2022-11-15T08:56:06;1.50;;;1.30;;
13672;SDS011;6909;52.202;9.876;2022-11-15T08:58:34;1.43;;;1.10;;
13672;SDS011;6909;52.202;9.876;2022-11-15T09:01:00;1.70;;;1.07;;
13672;SDS011;6909;52.202;9.876;2022-11-15T09:03:27;1.70;;;1.27;;
13672;SDS011;6909;52.202;9.876;2022-11-15T09:05:54;2.20;;;1.10;;
13672;SDS011;6909;52.202;9.876;2022-11-15T09:08:22;2.70;;;1.13;;
13672;SDS011;6909;52.202;9.876;2022-11-15T09:10:50;1.97;;;1.30;;
13672;SDS011;6909;52.202;9.876;2022-11-15T09:13:17;1.73;;;1.50;;
13672;SDS011;6909;52.202;9.876;2022-11-15T09:15:44;1.67;;;1.30;;
13672;SDS011;6909;52.202;9.876;2022-11-15T09:18:10;2.50;;;1.40;;
13672;SDS011;6909;52.202;9.876;2022-11-15T09:20:37;1.57;;;1.03;;
13672;SDS011;6909;52.202;9.876;2022-11-15T09:23:04;2.10;;;1.40;;
13672;SDS011;6909;52.202;9.876;2022-11-15T09:25:32;9.90;;;1.67;;
13672;SDS011;6909;52.202;9.876;2022-11-15T09:28:00;2.80;;;1.63;;
13672;SDS011;6909;52.202;9.876;2022-11-15T09:30:26;2.23;;;1.70;;
13672;SDS011;6909;52.202;9.876;2022-11-15T09:32:53;2.63;;;1.30;;
13672;SDS011;6909;52.202;9.876;2022-11-15T09:35:20;2.40;;;1.43;;
13672;SDS011;6909;52.202;9.876;2022-11-15T09:37:46;2.30;;;1.10;;
13672;SDS011;6909;52.202;9.876;2022-11-15T09:40:14;1.40;;;1.30;;
13672;SDS011;6909;52.202;9.876;2022-11-15T09:42:50;1.57;;;1.37;;
13672;SDS011;6909;52.202;9.876;2022-11-15T09:45:30;1.70;;;1.47;;
13672;SDS011;6909;52.202;9.876;2022-11-15T09:50:52;1.73;;;1.33;;
13672;SDS011;6909;52.202;9.876;2022-11-15T09:53:25;2.60;;;1.20;;
13672;SDS011;6909;52.202;9.876;2022-11-15T09:55:58;1.40;;;1.30;;
13672;SDS011;6909;52.202;9.876;2022-11-15T09:58:29;1.17;;;1.07;;
13672;SDS011;6909;52.202;9.876;2022-11-15T10:01:04;2.67;;;1.20;;
13672;SDS011;6909;52.202;9.876;2022-11-15T10:03:35;1.23;;;1.13;;
13672;SDS011;6909;52.202;9.876;2022-11-15T10:06:06;7.17;;;1.40;;
13672;SDS011;6909;52.202;9.876;2022-11-15T10:08:44;2.43;;;1.20;;
13672;SDS011;6909;52.202;9.876;2022-11-15T10:11:17;1.70;;;1.23;;
13672;SDS011;6909;52.202;9.876;2022-11-15T10:13:47;1.40;;;1.30;;
13672;SDS011;6909;52.202;9.876;2022-11-15T10:16:21;1.70;;;1.27;;
13672;SDS011;6909;52.202;9.876;2022-11-15T10:19:12;1.73;;;1.13;;
13672;SDS011;6909;52.202;9.876;2022-11-15T10:21:47;2.83;;;1.20;;
13672;SDS011;6909;52.202;9.876;2022-11-15T10:24:24;1.30;;;1.17;;
13672;SDS011;6909;52.202;9.876;2022-11-15T10:26:54;1.43;;;1.20;;
13672;SDS011;6909;52.202;9.876;2022-11-15T10:29:22;1.20;;;1.10;;
13672;SDS011;6909;52.202;9.876;2022-11-15T10:31:51;2.30;;;1.27;;
13672;SDS011;6909;52.202;9.876;2022-11-15T10:34:19;1.10;;;1.00;;
13672;SDS011;6909;52.202;9.876;2022-11-15T10:36:53;1.63;;;1.40;;
13672;SDS011;6909;52.202;9.876;2022-11-15T10:39:21;2.43;;;1.20;;
13672;SDS011;6909;52.202;9.876;2022-11-15T10:41:48;2.00;;;1.33;;
13672;SDS011;6909;52.202;9.876;2022-11-15T10:44:19;3.03;;;1.30;;
13672;SDS011;6909;52.202;9.876;2022-11-15T10:46:48;1.40;;;1.00;;
13672;SDS011;6909;52.202;9.876;2022-11-15T10:49:33;1.43;;;1.23;;
13672;SDS011;6909;52.202;9.876;2022-11-15T10:52:01;1.27;;;1.13;;
13672;SDS011;6909;52.202;9.876;2022-11-15T10:54:39;2.57;;;1.47;;
13672;SDS011;6909;52.202;9.876;2022-11-15T10:57:10;2.33;;;1.27;;
13672;SDS011;6909;52.202;9.876;2022-11-15T10:59:42;1.13;;;1.03;;
13672;SDS011;6909;52.202;9.876;2022-11-15T11:02:25;1.20;;;0.90;;
13672;SDS011;6909;52.202;9.876;2022-11-15T11:04:55;1.63;;;1.10;;
13672;SDS011;6909;52.202;9.876;2022-11-15T11:07:22;2.03;;;1.10;;
13672;SDS011;6909;52.202;9.876;2022-11-15T11:09:56;1.77;;;1.07;;
13672;SDS011;6909;52.202;9.876;2022-11-15T11:12:26;1.20;;;1.10;;
13672;SDS011;6909;52.202;9.876;2022-11-15T11:14:56;2.20;;;1.30;;
13672;SDS011;6909;52.202;9.876;2022-11-15T11:17:27;1.97;;;1.47;;
13672;SDS011;6909;52.202;9.876;2022-11-15T11:20:02;1.63;;;1.30;;
13672;SDS011;6909;52.202;9.876;2022-11-15T11:22:38;1.47;;;1.37;;
13672;SDS011;6909;52.202;9.876;2022-11-15T11:25:27;1.53;;;0.97;;
13672;SDS011;6909;52.202;9.876;2022-11-15T11:28:05;1.20;;;1.10;;
13672;SDS011;6909;52.202;9.876;2022-11-15T11:30:49;3.07;;;1.53;;
13672;SDS011;6909;52.202;9.876;2022-11-15T11:33:26;2.20;;;1.10;;
13672;SDS011;6909;52.202;9.876;2022-11-15T11:36:05;1.30;;;1.10;;
13672;SDS011;6909;52.202;9.876;2022-11-15T11:38:43;1.30;;;1.20;;
13672;SDS011;6909;52.202;9.876;2022-11-15T11:41:19;1.80;;;1.40;;
13672;SDS011;6909;52.202;9.876;2022-11-15T11:43:59;1.77;;;1.23;;
13672;SDS011;6909;52.202;9.876;2022-11-15T11:46:47;1.27;;;1.07;;
13672;SDS011;6909;52.202;9.876;2022-11-15T11:49:20;2.83;;;1.47;;
13672;SDS011;6909;52.202;9.876;2022-11-15T11:51:54;3.70;;;2.07;;
13672;SDS011;6909;52.202;9.876;2022-11-15T11:54:25;5.30;;;1.67;;
13672;SDS011;6909;52.202;9.876;2022-11-15T11:56:58;1.43;;;1.33;;
13672;SDS011;6909;52.202;9.876;2022-11-15T11:59:32;1.37;;;1.27;;
13672;SDS011;6909;52.202;9.876;2022-11-15T12:02:09;3.10;;;1.90;;
13672;SDS011;6909;52.202;9.876;2022-11-15T12:04:42;3.17;;;1.70;;
13672;SDS011;6909;52.202;9.876;2022-11-15T12:07:15;1.93;;;1.60;;
13672;SDS011;6909;52.202;9.876;2022-11-15T12:09:47;2.10;;;1.40;;
13672;SDS011;6909;52.202;9.876;2022-11-15T12:12:18;2.00;;;1.60;;
13672;SDS011;6909;52.202;9.876;2022-11-15T12:14:53;1.47;;;1.37;;
13672;SDS011;6909;52.202;9.876;2022-11-15T12:17:24;2.13;;;1.30;;
13672;SDS011;6909;52.202;9.876;2022-11-15T12:19:53;6.10;;;1.60;;
13672;SDS011;6909;52.202;9.876;2022-11-15T12:22:24;2.70;;;1.60;;
13672;SDS011;6909;52.202;9.876;2022-11-15T12:25:00;2.17;;;1.30;;
13672;SDS011;6909;52.202;9.876;2022-11-15T12:27:31;1.40;;;1.20;;
13672;SDS011;6909;52.202;9.876;2022-11-15T12:30:02;2.27;;;1.10;;
13672;SDS011;6909;52.202;9.876;2022-11-15T12:32:34;2.17;;;1.40;;
13672;SDS011;6909;52.202;9.876;2022-11-15T12:35:05;2.23;;;1.10;;
13672;SDS011;6909;52.202;9.876;2022-11-15T12:37:48;3.73;;;1.43;;
13672;SDS011;6909;52.202;9.876;2022-11-15T12:40:17;2.63;;;1.63;;
13672;SDS011;6909;52.202;9.876;2022-11-15T12:42:57;2.50;;;1.67;;
13672;SDS011;6909;52.202;9.876;2022-11-15T12:45:26;2.30;;;1.70;;
13672;SDS011;6909;52.202;9.876;2022-11-15T12:47:56;2.07;;;1.73;;
13672;SDS011;6909;52.202;9.876;2022-11-15T12:50:57;3.80;;;1.00;;
13672;SDS011;6909;52.202;9.876;2022-11-15T12:53:26;2.20;;;1.30;;
13672;SDS011;6909;52.202;9.876;2022-11-15T12:56:08;2.33;;;1.43;;
13672;SDS011;6909;52.202;9.876;2022-11-15T12:58:44;1.77;;;1.50;;
13672;SDS011;6909;52.202;9.876;2022-11-15T13:04:21;3.07;;;1.37;;
13672;SDS011;6909;52.202;9.876;2022-11-15T13:06:52;3.17;;;1.50;;
13672;SDS011;6909;52.202;9.876;2022-11-15T13:18:31;2.27;;;1.63;;
13672;SDS011;6909;52.202;9.876;2022-11-15T13:21:01;1.57;;;1.27;;
13672;SDS011;6909;52.202;9.876;2022-11-15T13:23:54;2.63;;;1.70;;
13672;SDS011;6909;52.202;9.876;2022-11-15T13:26:30;2.57;;;1.50;;
13672;SDS011;6909;52.202;9.876;2022-11-15T13:28:57;3.33;;;1.43;;
13672;SDS011;6909;52.202;9.876;2022-11-15T13:31:27;2.50;;;1.30;;
13672;SDS011;6909;52.202;9.876;2022-11-15T13:33:57;1.60;;;1.17;;
13672;SDS011;6909;52.202;9.876;2022-11-15T13:36:28;2.60;;;1.40;;
13672;SDS011;6909;52.202;9.876;2022-11-15T13:39:00;3.30;;;1.37;;
13672;SDS011;6909;52.202;9.876;2022-11-15T13:41:29;1.83;;;1.47;;
13672;SDS011;6909;52.202;9.876;2022-11-15T13:43:57;2.80;;;1.40;;
13672;SDS011;6909;52.202;9.876;2022-11-15T13:46:25;2.30;;;1.87;;
13672;SDS011;6909;52.202;9.876;2022-11-15T13:48:54;4.10;;;1.70;;
13672;SDS011;6909;52.202;9.876;2022-11-15T13:51:30;2.53;;;1.60;;
13672;SDS011;6909;52.202;9.876;2022-11-15T13:54:06;1.90;;;1.40;;
13672;SDS011;6909;52.202;9.876;2022-11-15T13:56:41;1.87;;;1.47;;
13672;SDS011;6909;52.202;9.876;2022-11-15T13:59:10;2.20;;;1.30;;
13672;SDS011;6909;52.202;9.876;2022-11-15T14:01:42;2.57;;;1.50;;
13672;SDS011;6909;52.202;9.876;2022-11-15T14:04:11;1.60;;;1.30;;
13672;SDS011;6909;52.202;9.876;2022-11-15T14:06:44;1.70;;;1.37;;
13672;SDS011;6909;52.202;9.876;2022-11-15T14:12:22;2.33;;;1.40;;
13672;SDS011;6909;52.202;9.876;2022-11-15T14:14:55;2.27;;;1.60;;
13672;SDS011;6909;52.202;9.876;2022-11-15T14:17:32;1.83;;;1.37;;
13672;SDS011;6909;52.202;9.876;2022-11-15T14:20:01;1.13;;;1.03;;
13672;SDS011;6909;52.202;9.876;2022-11-15T14:22:29;1.20;;;1.00;;
13672;SDS011;6909;52.202;9.876;2022-11-15T14:25:13;1.90;;;1.23;;
13672;SDS011;6909;52.202;9.876;2022-11-15T14:27:41;1.33;;;1.23;;
13672;SDS011;6909;52.202;9.876;2022-11-15T14:30:12;1.83;;;1.50;;
13672;SDS011;6909;52.202;9.876;2022-11-15T14:32:42;1.30;;;1.20;;
13672;SDS011;6909;52.202;9.876;2022-11-15T14:35:12;1.43;;;1.27;;
13672;SDS011;6909;52.202;9.876;2022-11-15T14:37:41;1.43;;;1.33;;
13672;SDS011;6909;52.202;9.876;2022-11-15T14:40:12;1.53;;;1.30;;
13672;SDS011;6909;52.202;9.876;2022-11-15T14:42:40;2.63;;;1.40;;
13672;SDS011;6909;52.202;9.876;2022-11-15T14:45:09;1.87;;;1.17;;
13672;SDS011;6909;52.202;9.876;2022-11-15T14:47:39;1.87;;;1.57;;
13672;SDS011;6909;52.202;9.876;2022-11-15T14:50:06;3.40;;;1.53;;
13672;SDS011;6909;52.202;9.876;2022-11-15T14:52:36;3.20;;;1.60;;
13672;SDS011;6909;52.202;9.876;2022-11-15T14:55:04;2.03;;;1.37;;
13672;SDS011;6909;52.202;9.876;2022-11-15T14:57:42;3.27;;;1.70;;
13672;SDS011;6909;52.202;9.876;2022-11-15T15:00:10;1.70;;;1.40;;
13672;SDS011;6909;52.202;9.876;2022-11-15T15:02:38;1.30;;;1.13;;
13672;SDS011;6909;52.202;9.876;2022-11-15T15:05:11;3.67;;;1.77;;
13672;SDS011;6909;52.202;9.876;2022-11-15T15:07:40;3.60;;;1.80;;
13672;SDS011;6909;52.202;9.876;2022-11-15T15:10:07;2.17;;;1.57;;
13672;SDS011;6909;52.202;9.876;2022-11-15T15:12:35;3.33;;;1.50;;
13672;SDS011;6909;52.202;9.876;2022-11-15T15:15:02;3.80;;;2.23;;
13672;SDS011;6909;52.202;9.876;2022-11-15T15:17:29;4.13;;;1.73;;
13672;SDS011;6909;52.202;9.876;2022-11-15T15:19:56;2.77;;;1.97;;
13672;SDS011;6909;52.202;9.876;2022-11-15T15:22:23;2.50;;;1.90;;
13672;SDS011;6909;52.202;9.876;2022-11-15T15:24:55;2.70;;;1.63;;
13672;SDS011;6909;52.202;9.876;2022-11-15T15:27:22;2.23;;;1.60;;
13672;SDS011;6909;52.202;9.876;2022-11-15T15:29:50;2.50;;;2.13;;
13672;SDS011;6909;52.202;9.876;2022-11-15T15:32:16;2.33;;;2.03;;
13672;SDS011;6909;52.202;9.876;2022-11-15T15:34:43;2.40;;;1.73;;
13672;SDS011;6909;52.202;9.876;2022-11-15T15:37:18;4.03;;;2.40;;
13672;SDS011;6909;52.202;9.876;2022-11-15T15:39:49;2.97;;;2.00;;
13672;SDS011;6909;52.202;9.876;2022-11-15T15:42:16;3.17;;;1.93;;
13672;SDS011;6909;52.202;9.876;2022-11-15T15:44:42;2.60;;;2.10;;